sensor_id;sensor_type;location;lat;lon;timestamp;P1;durP1;ratioP1;P2;durP2;ratioP2
15681;SDS011;7941;50.966;6.978;2022-08-05T00:00:35;7.47;;;4.70;;
15681;SDS011;7941;50.966;6.978;2022-08-05T00:03:02;6.47;;;4.70;;
15681;SDS011;7941;50.966;6.978;2022-08-05T00:05:28;7.00;;;4.30;;
15681;SDS011;7941;50.966;6.978;2022-08-05T00:07:54;6.20;;;4.47;;
15681;SDS011;7941;50.966;6.978;2022-08-05T00:10:20;7.10;;;4.83;;
15681;SDS011;7941;50.966;6.978;2022-08-05T00:12:47;8.70;;;5.00;;
15681;SDS011;7941;50.966;6.978;2022-08-05T00:15:13;6.67;;;4.97;;
15681;SDS011;7941;50.966;6.978;2022-08-05T00:17:39;8.00;;;4.80;;
15681;SDS011;7941;50.966;6.978;2022-08-05T00:20:05;8.80;;;5.37;;
15681;SDS011;7941;50.966;6.978;2022-08-05T00:22:31;6.43;;;4.87;;
15681;SDS011;7941;50.966;6.978;2022-08-05T00:24:57;5.77;;;4.70;;
15681;SDS011;7941;50.966;6.978;2022-08-05T00:27:23;7.07;;;4.27;;
15681;SDS011;7941;50.966;6.978;2022-08-05T00:29:49;6.57;;;5.13;;
15681;SDS011;7941;50.966;6.978;2022-08-05T00:32:16;5.93;;;5.00;;
15681;SDS011;7941;50.966;6.978;2022-08-05T00:34:42;9.13;;;5.37;;
15681;SDS011;7941;50.966;6.978;2022-08-05T00:37:09;6.80;;;5.60;;
15681;SDS011;7941;50.966;6.978;2022-08-05T00:39:35;7.43;;;5.40;;
15681;SDS011;7941;50.966;6.978;2022-08-05T00:42:01;6.50;;;5.40;;
15681;SDS011;7941;50.966;6.978;2022-08-05T00:44:27;7.50;;;6.30;;
15681;SDS011;7941;50.966;6.978;2022-08-05T00:46:53;6.47;;;5.53;;
15681;SDS011;7941;50.966;6.978;2022-08-05T00:49:19;6.83;;;5.97;;
15681;SDS011;7941;50.966;6.978;2022-08-05T00:51:45;7.87;;;5.80;;
15681;SDS011;7941;50.966;6.978;2022-08-05T00:54:12;8.63;;;6.20;;
15681;SDS011;7941;50.966;6.978;2022-08-05T00:56:38;7.17;;;6.47;;
15681;SDS011;7941;50.966;6.978;2022-08-05T00:59:04;8.20;;;5.90;;
15681;SDS011;7941;50.966;6.978;2022-08-05T01:01:31;8.57;;;6.30;;
15681;SDS011;7941;50.966;6.978;2022-08-05T01:03:57;7.97;;;6.40;;
15681;SDS011;7941;50.966;6.978;2022-08-05T01:06:23;7.47;;;6.40;;
15681;SDS011;7941;50.966;6.978;2022-08-05T01:08:49;6.27;;;5.67;;
15681;SDS011;7941;50.966;6.978;2022-08-05T01:16:09;7.93;;;5.87;;
15681;SDS011;7941;50.966;6.978;2022-08-05T01:18:39;6.53;;;5.77;;
15681;SDS011;7941;50.966;6.978;2022-08-05T01:21:29;6.70;;;6.00;;
15681;SDS011;7941;50.966;6.978;2022-08-05T01:24:13;10.97;;;6.27;;
15681;SDS011;7941;50.966;6.978;2022-08-05T01:29:15;7.50;;;5.93;;
15681;SDS011;7941;50.966;6.978;2022-08-05T01:31:43;6.43;;;5.73;;
15681;SDS011;7941;50.966;6.978;2022-08-05T01:34:21;10.50;;;6.20;;
15681;SDS011;7941;50.966;6.978;2022-08-05T01:37:10;7.97;;;5.83;;
15681;SDS011;7941;50.966;6.978;2022-08-05T01:39:37;5.30;;;4.80;;
15681;SDS011;7941;50.966;6.978;2022-08-05T01:42:07;6.87;;;5.60;;
15681;SDS011;7941;50.966;6.978;2022-08-05T01:44:33;6.30;;;4.93;;
15681;SDS011;7941;50.966;6.978;2022-08-05T01:47:00;7.40;;;4.90;;
15681;SDS011;7941;50.966;6.978;2022-08-05T01:49:27;7.47;;;5.00;;
15681;SDS011;7941;50.966;6.978;2022-08-05T01:51:56;9.63;;;5.10;;
15681;SDS011;7941;50.966;6.978;2022-08-05T01:54:23;6.27;;;4.73;;
15681;SDS011;7941;50.966;6.978;2022-08-05T01:56:50;7.07;;;4.70;;
15681;SDS011;7941;50.966;6.978;2022-08-05T01:59:18;5.87;;;4.83;;
15681;SDS011;7941;50.966;6.978;2022-08-05T02:01:45;5.90;;;4.70;;
15681;SDS011;7941;50.966;6.978;2022-08-05T02:04:13;5.43;;;4.63;;
15681;SDS011;7941;50.966;6.978;2022-08-05T02:06:41;10.47;;;5.03;;
15681;SDS011;7941;50.966;6.978;2022-08-05T02:09:07;7.80;;;5.27;;
15681;SDS011;7941;50.966;6.978;2022-08-05T02:11:40;10.20;;;5.03;;
15681;SDS011;7941;50.966;6.978;2022-08-05T02:14:11;9.03;;;5.90;;
15681;SDS011;7941;50.966;6.978;2022-08-05T02:16:43;10.40;;;5.57;;
15681;SDS011;7941;50.966;6.978;2022-08-05T02:19:16;11.73;;;5.97;;
15681;SDS011;7941;50.966;6.978;2022-08-05T02:21:50;7.53;;;5.93;;
15681;SDS011;7941;50.966;6.978;2022-08-05T02:24:19;8.93;;;6.73;;
15681;SDS011;7941;50.966;6.978;2022-08-05T02:26:50;10.90;;;6.93;;
15681;SDS011;7941;50.966;6.978;2022-08-05T02:29:19;9.17;;;7.00;;
15681;SDS011;7941;50.966;6.978;2022-08-05T02:31:45;31.13;;;9.63;;
15681;SDS011;7941;50.966;6.978;2022-08-05T02:34:13;14.00;;;9.67;;
15681;SDS011;7941;50.966;6.978;2022-08-05T02:36:42;13.13;;;9.97;;
15681;SDS011;7941;50.966;6.978;2022-08-05T02:39:08;16.43;;;13.17;;
15681;SDS011;7941;50.966;6.978;2022-08-05T02:41:35;17.70;;;13.37;;
15681;SDS011;7941;50.966;6.978;2022-08-05T02:44:02;23.27;;;14.43;;
15681;SDS011;7941;50.966;6.978;2022-08-05T02:46:32;26.53;;;16.97;;
15681;SDS011;7941;50.966;6.978;2022-08-05T02:48:58;32.73;;;18.50;;
15681;SDS011;7941;50.966;6.978;2022-08-05T02:51:24;21.97;;;19.13;;
15681;SDS011;7941;50.966;6.978;2022-08-05T02:53:51;23.80;;;19.50;;
15681;SDS011;7941;50.966;6.978;2022-08-05T02:56:18;22.90;;;20.40;;
15681;SDS011;7941;50.966;6.978;2022-08-05T02:58:44;20.97;;;18.87;;
15681;SDS011;7941;50.966;6.978;2022-08-05T03:01:12;23.30;;;20.93;;
15681;SDS011;7941;50.966;6.978;2022-08-05T03:03:40;20.40;;;17.90;;
15681;SDS011;7941;50.966;6.978;2022-08-05T03:06:10;24.50;;;22.17;;
15681;SDS011;7941;50.966;6.978;2022-08-05T03:08:37;25.57;;;23.03;;
15681;SDS011;7941;50.966;6.978;2022-08-05T03:11:14;26.50;;;23.90;;
15681;SDS011;7941;50.966;6.978;2022-08-05T03:13:41;27.63;;;24.93;;
15681;SDS011;7941;50.966;6.978;2022-08-05T03:16:07;31.53;;;28.10;;
15681;SDS011;7941;50.966;6.978;2022-08-05T03:18:33;33.67;;;30.07;;
15681;SDS011;7941;50.966;6.978;2022-08-05T03:20:59;35.67;;;32.13;;
15681;SDS011;7941;50.966;6.978;2022-08-05T03:23:25;38.40;;;34.40;;
15681;SDS011;7941;50.966;6.978;2022-08-05T03:25:51;39.13;;;34.43;;
15681;SDS011;7941;50.966;6.978;2022-08-05T03:28:18;38.97;;;34.97;;
15681;SDS011;7941;50.966;6.978;2022-08-05T03:30:45;41.50;;;37.17;;
15681;SDS011;7941;50.966;6.978;2022-08-05T03:33:11;40.87;;;36.50;;
15681;SDS011;7941;50.966;6.978;2022-08-05T03:35:37;42.37;;;37.87;;
15681;SDS011;7941;50.966;6.978;2022-08-05T03:38:03;41.60;;;37.33;;
15681;SDS011;7941;50.966;6.978;2022-08-05T03:40:29;44.67;;;39.50;;
15681;SDS011;7941;50.966;6.978;2022-08-05T03:42:56;42.73;;;38.13;;
15681;SDS011;7941;50.966;6.978;2022-08-05T03:45:22;43.40;;;38.83;;
15681;SDS011;7941;50.966;6.978;2022-08-05T03:47:48;44.07;;;39.53;;
15681;SDS011;7941;50.966;6.978;2022-08-05T03:50:14;49.77;;;42.37;;
15681;SDS011;7941;50.966;6.978;2022-08-05T03:52:46;49.23;;;42.37;;
15681;SDS011;7941;50.966;6.978;2022-08-05T03:55:18;47.53;;;41.70;;
15681;SDS011;7941;50.966;6.978;2022-08-05T03:57:46;49.73;;;44.53;;
15681;SDS011;7941;50.966;6.978;2022-08-05T04:00:13;50.63;;;45.47;;
15681;SDS011;7941;50.966;6.978;2022-08-05T04:02:41;49.77;;;42.40;;
15681;SDS011;7941;50.966;6.978;2022-08-05T04:05:08;50.33;;;44.50;;
15681;SDS011;7941;50.966;6.978;2022-08-05T04:07:35;51.60;;;46.20;;
15681;SDS011;7941;50.966;6.978;2022-08-05T04:10:02;53.73;;;47.97;;
15681;SDS011;7941;50.966;6.978;2022-08-05T04:12:28;53.00;;;47.20;;
15681;SDS011;7941;50.966;6.978;2022-08-05T04:14:55;53.17;;;47.90;;
15681;SDS011;7941;50.966;6.978;2022-08-05T04:17:21;53.00;;;47.23;;
15681;SDS011;7941;50.966;6.978;2022-08-05T04:19:48;57.73;;;51.67;;
15681;SDS011;7941;50.966;6.978;2022-08-05T04:22:14;66.70;;;59.60;;
15681;SDS011;7941;50.966;6.978;2022-08-05T04:24:41;61.63;;;55.40;;
15681;SDS011;7941;50.966;6.978;2022-08-05T04:27:08;68.87;;;58.37;;
15681;SDS011;7941;50.966;6.978;2022-08-05T04:29:34;63.23;;;56.53;;
15681;SDS011;7941;50.966;6.978;2022-08-05T04:32:00;61.20;;;54.73;;
15681;SDS011;7941;50.966;6.978;2022-08-05T04:34:26;64.50;;;57.70;;
15681;SDS011;7941;50.966;6.978;2022-08-05T04:36:53;65.60;;;58.50;;
15681;SDS011;7941;50.966;6.978;2022-08-05T04:39:19;67.97;;;57.83;;
15681;SDS011;7941;50.966;6.978;2022-08-05T04:41:46;66.33;;;59.23;;
15681;SDS011;7941;50.966;6.978;2022-08-05T04:44:12;67.37;;;60.00;;
15681;SDS011;7941;50.966;6.978;2022-08-05T04:46:38;69.90;;;62.67;;
15681;SDS011;7941;50.966;6.978;2022-08-05T04:49:05;64.13;;;57.33;;
15681;SDS011;7941;50.966;6.978;2022-08-05T04:51:31;66.87;;;59.67;;
15681;SDS011;7941;50.966;6.978;2022-08-05T04:54:00;65.50;;;58.50;;
15681;SDS011;7941;50.966;6.978;2022-08-05T04:56:26;62.73;;;54.80;;
15681;SDS011;7941;50.966;6.978;2022-08-05T04:58:52;58.30;;;52.33;;
15681;SDS011;7941;50.966;6.978;2022-08-05T05:01:18;55.87;;;49.97;;
15681;SDS011;7941;50.966;6.978;2022-08-05T05:03:45;56.17;;;50.17;;
15681;SDS011;7941;50.966;6.978;2022-08-05T05:06:11;56.13;;;50.23;;
15681;SDS011;7941;50.966;6.978;2022-08-05T05:08:38;57.13;;;50.90;;
15681;SDS011;7941;50.966;6.978;2022-08-05T05:11:04;57.67;;;51.73;;
15681;SDS011;7941;50.966;6.978;2022-08-05T05:13:30;73.10;;;65.70;;
15681;SDS011;7941;50.966;6.978;2022-08-05T05:15:57;73.33;;;65.57;;
15681;SDS011;7941;50.966;6.978;2022-08-05T05:18:23;69.57;;;62.23;;
15681;SDS011;7941;50.966;6.978;2022-08-05T05:20:49;75.97;;;67.97;;
15681;SDS011;7941;50.966;6.978;2022-08-05T05:23:16;71.63;;;64.20;;
15681;SDS011;7941;50.966;6.978;2022-08-05T05:25:43;76.93;;;68.90;;
15681;SDS011;7941;50.966;6.978;2022-08-05T05:28:09;76.53;;;68.57;;
15681;SDS011;7941;50.966;6.978;2022-08-05T05:30:36;75.20;;;67.47;;
15681;SDS011;7941;50.966;6.978;2022-08-05T05:33:03;72.80;;;65.50;;
15681;SDS011;7941;50.966;6.978;2022-08-05T05:35:30;75.33;;;67.40;;
15681;SDS011;7941;50.966;6.978;2022-08-05T05:37:57;75.20;;;67.33;;
15681;SDS011;7941;50.966;6.978;2022-08-05T05:40:27;73.13;;;65.57;;
15681;SDS011;7941;50.966;6.978;2022-08-05T05:42:54;74.53;;;66.60;;
15681;SDS011;7941;50.966;6.978;2022-08-05T05:45:20;74.30;;;66.47;;
15681;SDS011;7941;50.966;6.978;2022-08-05T05:47:46;68.87;;;62.13;;
15681;SDS011;7941;50.966;6.978;2022-08-05T05:50:14;70.03;;;62.70;;
15681;SDS011;7941;50.966;6.978;2022-08-05T05:52:40;69.43;;;62.30;;
15681;SDS011;7941;50.966;6.978;2022-08-05T05:55:07;67.87;;;60.87;;
15681;SDS011;7941;50.966;6.978;2022-08-05T05:57:34;64.63;;;58.20;;
15681;SDS011;7941;50.966;6.978;2022-08-05T06:00:01;66.17;;;59.50;;
15681;SDS011;7941;50.966;6.978;2022-08-05T06:02:27;70.17;;;62.90;;
15681;SDS011;7941;50.966;6.978;2022-08-05T06:04:53;66.73;;;59.77;;
15681;SDS011;7941;50.966;6.978;2022-08-05T06:07:19;66.57;;;59.67;;
15681;SDS011;7941;50.966;6.978;2022-08-05T06:09:45;64.43;;;57.53;;
15681;SDS011;7941;50.966;6.978;2022-08-05T06:12:11;61.53;;;55.40;;
15681;SDS011;7941;50.966;6.978;2022-08-05T06:14:37;62.33;;;55.83;;
15681;SDS011;7941;50.966;6.978;2022-08-05T06:17:03;62.03;;;55.57;;
15681;SDS011;7941;50.966;6.978;2022-08-05T06:19:29;63.47;;;56.77;;
15681;SDS011;7941;50.966;6.978;2022-08-05T06:21:56;64.93;;;56.30;;
15681;SDS011;7941;50.966;6.978;2022-08-05T06:24:22;63.60;;;56.57;;
15681;SDS011;7941;50.966;6.978;2022-08-05T06:26:48;62.53;;;55.87;;
15681;SDS011;7941;50.966;6.978;2022-08-05T06:29:14;65.90;;;56.93;;
15681;SDS011;7941;50.966;6.978;2022-08-05T06:31:40;59.90;;;53.53;;
15681;SDS011;7941;50.966;6.978;2022-08-05T06:34:06;68.30;;;59.53;;
15681;SDS011;7941;50.966;6.978;2022-08-05T06:36:32;67.37;;;57.97;;
15681;SDS011;7941;50.966;6.978;2022-08-05T06:38:58;65.07;;;55.77;;
15681;SDS011;7941;50.966;6.978;2022-08-05T06:41:24;66.63;;;56.60;;
15681;SDS011;7941;50.966;6.978;2022-08-05T06:43:50;71.63;;;57.70;;
15681;SDS011;7941;50.966;6.978;2022-08-05T06:46:17;70.30;;;56.23;;
15681;SDS011;7941;50.966;6.978;2022-08-05T06:48:43;70.27;;;57.07;;
15681;SDS011;7941;50.966;6.978;2022-08-05T06:51:09;80.17;;;59.27;;
15681;SDS011;7941;50.966;6.978;2022-08-05T06:53:35;71.60;;;60.37;;
15681;SDS011;7941;50.966;6.978;2022-08-05T06:56:01;77.67;;;60.97;;
15681;SDS011;7941;50.966;6.978;2022-08-05T06:58:27;70.13;;;59.73;;
15681;SDS011;7941;50.966;6.978;2022-08-05T07:00:56;68.73;;;55.93;;
15681;SDS011;7941;50.966;6.978;2022-08-05T07:03:23;68.03;;;58.27;;
15681;SDS011;7941;50.966;6.978;2022-08-05T07:05:49;70.00;;;57.77;;
15681;SDS011;7941;50.966;6.978;2022-08-05T07:08:15;68.10;;;56.90;;
15681;SDS011;7941;50.966;6.978;2022-08-05T07:10:41;71.83;;;58.53;;
15681;SDS011;7941;50.966;6.978;2022-08-05T07:13:08;61.43;;;54.53;;
15681;SDS011;7941;50.966;6.978;2022-08-05T07:15:53;64.47;;;57.80;;
15681;SDS011;7941;50.966;6.978;2022-08-05T07:18:38;67.27;;;59.93;;
15681;SDS011;7941;50.966;6.978;2022-08-05T07:21:04;63.60;;;56.60;;
15681;SDS011;7941;50.966;6.978;2022-08-05T07:23:31;59.70;;;53.77;;
15681;SDS011;7941;50.966;6.978;2022-08-05T07:25:57;58.30;;;52.23;;
15681;SDS011;7941;50.966;6.978;2022-08-05T07:28:24;59.83;;;53.60;;
15681;SDS011;7941;50.966;6.978;2022-08-05T07:30:50;61.17;;;54.73;;
15681;SDS011;7941;50.966;6.978;2022-08-05T07:33:17;60.63;;;54.20;;
15681;SDS011;7941;50.966;6.978;2022-08-05T07:35:45;64.47;;;57.60;;
15681;SDS011;7941;50.966;6.978;2022-08-05T07:38:11;61.17;;;54.70;;
15681;SDS011;7941;50.966;6.978;2022-08-05T07:40:37;73.77;;;65.50;;
15681;SDS011;7941;50.966;6.978;2022-08-05T07:43:03;76.63;;;68.23;;
15681;SDS011;7941;50.966;6.978;2022-08-05T07:45:30;85.20;;;67.87;;
15681;SDS011;7941;50.966;6.978;2022-08-05T07:47:57;78.00;;;67.90;;
15681;SDS011;7941;50.966;6.978;2022-08-05T07:50:23;76.97;;;67.13;;
15681;SDS011;7941;50.966;6.978;2022-08-05T07:52:49;76.57;;;68.23;;
15681;SDS011;7941;50.966;6.978;2022-08-05T07:55:15;80.97;;;68.60;;
15681;SDS011;7941;50.966;6.978;2022-08-05T07:57:42;79.53;;;71.10;;
15681;SDS011;7941;50.966;6.978;2022-08-05T08:00:08;80.90;;;70.47;;
15681;SDS011;7941;50.966;6.978;2022-08-05T08:02:34;86.10;;;76.77;;
15681;SDS011;7941;50.966;6.978;2022-08-05T08:05:00;75.17;;;66.40;;
15681;SDS011;7941;50.966;6.978;2022-08-05T08:07:27;73.67;;;65.97;;
15681;SDS011;7941;50.966;6.978;2022-08-05T08:09:53;75.70;;;67.80;;
15681;SDS011;7941;50.966;6.978;2022-08-05T08:12:19;74.10;;;66.43;;
15681;SDS011;7941;50.966;6.978;2022-08-05T08:14:46;71.63;;;64.17;;
15681;SDS011;7941;50.966;6.978;2022-08-05T08:17:12;76.27;;;64.47;;
15681;SDS011;7941;50.966;6.978;2022-08-05T08:19:39;83.77;;;74.80;;
15681;SDS011;7941;50.966;6.978;2022-08-05T08:22:05;90.33;;;80.83;;
15681;SDS011;7941;50.966;6.978;2022-08-05T08:24:32;93.80;;;83.13;;
15681;SDS011;7941;50.966;6.978;2022-08-05T08:26:58;95.97;;;85.40;;
15681;SDS011;7941;50.966;6.978;2022-08-05T08:29:25;99.93;;;88.53;;
15681;SDS011;7941;50.966;6.978;2022-08-05T08:31:51;106.50;;;89.50;;
15681;SDS011;7941;50.966;6.978;2022-08-05T08:34:18;102.80;;;88.20;;
15681;SDS011;7941;50.966;6.978;2022-08-05T08:36:45;89.30;;;80.13;;
15681;SDS011;7941;50.966;6.978;2022-08-05T08:39:11;83.33;;;74.63;;
15681;SDS011;7941;50.966;6.978;2022-08-05T08:41:39;84.07;;;73.50;;
15681;SDS011;7941;50.966;6.978;2022-08-05T08:44:09;86.00;;;77.20;;
15681;SDS011;7941;50.966;6.978;2022-08-05T08:46:36;85.80;;;77.13;;
15681;SDS011;7941;50.966;6.978;2022-08-05T08:49:03;83.80;;;74.93;;
15681;SDS011;7941;50.966;6.978;2022-08-05T08:51:32;83.20;;;74.80;;
15681;SDS011;7941;50.966;6.978;2022-08-05T08:53:59;81.80;;;72.93;;
15681;SDS011;7941;50.966;6.978;2022-08-05T08:56:26;75.97;;;68.00;;
15681;SDS011;7941;50.966;6.978;2022-08-05T08:58:52;70.43;;;62.03;;
15681;SDS011;7941;50.966;6.978;2022-08-05T09:01:18;61.83;;;55.27;;
15681;SDS011;7941;50.966;6.978;2022-08-05T09:03:46;57.97;;;51.57;;
15681;SDS011;7941;50.966;6.978;2022-08-05T09:06:12;54.57;;;47.03;;
15681;SDS011;7941;50.966;6.978;2022-08-05T09:08:38;46.93;;;42.03;;
15681;SDS011;7941;50.966;6.978;2022-08-05T09:11:05;47.03;;;41.33;;
15681;SDS011;7941;50.966;6.978;2022-08-05T09:13:32;46.00;;;39.20;;
15681;SDS011;7941;50.966;6.978;2022-08-05T09:15:59;50.20;;;42.50;;
15681;SDS011;7941;50.966;6.978;2022-08-05T09:18:25;45.80;;;41.00;;
15681;SDS011;7941;50.966;6.978;2022-08-05T09:20:51;46.57;;;42.00;;
15681;SDS011;7941;50.966;6.978;2022-08-05T09:23:18;45.33;;;40.83;;
15681;SDS011;7941;50.966;6.978;2022-08-05T09:25:48;44.70;;;40.13;;
15681;SDS011;7941;50.966;6.978;2022-08-05T09:30:55;43.43;;;39.13;;
15681;SDS011;7941;50.966;6.978;2022-08-05T09:33:21;41.10;;;37.10;;
15681;SDS011;7941;50.966;6.978;2022-08-05T09:36:01;37.23;;;33.67;;
15681;SDS011;7941;50.966;6.978;2022-08-05T09:38:27;32.07;;;28.90;;
15681;SDS011;7941;50.966;6.978;2022-08-05T09:40:57;34.73;;;31.33;;
15681;SDS011;7941;50.966;6.978;2022-08-05T09:45:53;31.73;;;28.87;;
15681;SDS011;7941;50.966;6.978;2022-08-05T09:48:23;29.80;;;27.00;;
15681;SDS011;7941;50.966;6.978;2022-08-05T09:50:54;28.00;;;25.53;;
15681;SDS011;7941;50.966;6.978;2022-08-05T09:53:20;25.83;;;23.43;;
15681;SDS011;7941;50.966;6.978;2022-08-05T09:55:49;24.77;;;22.03;;
15681;SDS011;7941;50.966;6.978;2022-08-05T09:58:16;22.90;;;20.90;;
15681;SDS011;7941;50.966;6.978;2022-08-05T10:03:20;24.70;;;22.57;;
15681;SDS011;7941;50.966;6.978;2022-08-05T10:05:46;24.13;;;21.93;;
15681;SDS011;7941;50.966;6.978;2022-08-05T10:08:24;24.20;;;22.10;;
15681;SDS011;7941;50.966;6.978;2022-08-05T10:10:51;24.90;;;22.50;;
15681;SDS011;7941;50.966;6.978;2022-08-05T10:15:55;23.23;;;21.27;;
15681;SDS011;7941;50.966;6.978;2022-08-05T10:18:25;24.03;;;22.00;;
15681;SDS011;7941;50.966;6.978;2022-08-05T10:21:02;22.43;;;20.40;;
15681;SDS011;7941;50.966;6.978;2022-08-05T10:25:59;19.37;;;17.30;;
15681;SDS011;7941;50.966;6.978;2022-08-05T10:28:26;17.70;;;16.10;;
15681;SDS011;7941;50.966;6.978;2022-08-05T10:30:53;16.63;;;15.03;;
15681;SDS011;7941;50.966;6.978;2022-08-05T10:33:21;21.07;;;15.20;;
15681;SDS011;7941;50.966;6.978;2022-08-05T10:35:48;15.23;;;13.77;;
15681;SDS011;7941;50.966;6.978;2022-08-05T10:38:14;13.73;;;12.43;;
15681;SDS011;7941;50.966;6.978;2022-08-05T10:45:53;12.73;;;11.50;;
15681;SDS011;7941;50.966;6.978;2022-08-05T10:48:42;12.73;;;10.67;;
15681;SDS011;7941;50.966;6.978;2022-08-05T10:51:10;10.17;;;8.23;;
15681;SDS011;7941;50.966;6.978;2022-08-05T10:53:38;9.37;;;8.30;;
15681;SDS011;7941;50.966;6.978;2022-08-05T10:56:09;9.77;;;7.97;;
15681;SDS011;7941;50.966;6.978;2022-08-05T10:58:35;8.47;;;6.93;;
15681;SDS011;7941;50.966;6.978;2022-08-05T11:01:12;10.17;;;6.97;;
15681;SDS011;7941;50.966;6.978;2022-08-05T11:06:23;9.20;;;5.80;;
15681;SDS011;7941;50.966;6.978;2022-08-05T11:11:34;9.00;;;5.17;;
15681;SDS011;7941;50.966;6.978;2022-08-05T11:14:00;6.57;;;5.10;;
15681;SDS011;7941;50.966;6.978;2022-08-05T11:16:28;7.57;;;5.77;;
15681;SDS011;7941;50.966;6.978;2022-08-05T11:21:40;6.40;;;4.90;;
15681;SDS011;7941;50.966;6.978;2022-08-05T11:24:06;8.10;;;5.30;;
15681;SDS011;7941;50.966;6.978;2022-08-05T11:26:33;6.03;;;4.57;;
15681;SDS011;7941;50.966;6.978;2022-08-05T11:29:03;4.60;;;4.20;;
15681;SDS011;7941;50.966;6.978;2022-08-05T11:31:29;6.37;;;4.00;;
15681;SDS011;7941;50.966;6.978;2022-08-05T11:34:03;7.73;;;4.63;;
15681;SDS011;7941;50.966;6.978;2022-08-05T11:39:12;5.60;;;4.17;;
15681;SDS011;7941;50.966;6.978;2022-08-05T11:41:38;4.37;;;3.37;;
15681;SDS011;7941;50.966;6.978;2022-08-05T11:44:09;7.47;;;4.07;;
15681;SDS011;7941;50.966;6.978;2022-08-05T11:46:52;6.23;;;3.30;;
15681;SDS011;7941;50.966;6.978;2022-08-05T11:49:19;11.23;;;8.00;;
15681;SDS011;7941;50.966;6.978;2022-08-05T11:51:47;5.07;;;3.20;;
15681;SDS011;7941;50.966;6.978;2022-08-05T11:54:20;4.37;;;2.77;;
15681;SDS011;7941;50.966;6.978;2022-08-05T11:56:49;4.53;;;2.80;;
15681;SDS011;7941;50.966;6.978;2022-08-05T11:59:22;4.83;;;2.33;;
15681;SDS011;7941;50.966;6.978;2022-08-05T12:01:53;3.87;;;2.70;;
15681;SDS011;7941;50.966;6.978;2022-08-05T12:04:19;3.20;;;2.50;;
15681;SDS011;7941;50.966;6.978;2022-08-05T12:06:46;6.53;;;3.10;;
15681;SDS011;7941;50.966;6.978;2022-08-05T12:09:12;4.10;;;2.40;;
15681;SDS011;7941;50.966;6.978;2022-08-05T12:11:42;3.30;;;2.23;;
15681;SDS011;7941;50.966;6.978;2022-08-05T12:14:09;3.83;;;2.60;;
15681;SDS011;7941;50.966;6.978;2022-08-05T12:16:36;6.43;;;2.90;;
15681;SDS011;7941;50.966;6.978;2022-08-05T12:19:02;3.47;;;2.83;;
15681;SDS011;7941;50.966;6.978;2022-08-05T12:21:30;4.53;;;2.80;;
15681;SDS011;7941;50.966;6.978;2022-08-05T12:23:57;2.70;;;2.23;;
15681;SDS011;7941;50.966;6.978;2022-08-05T12:26:28;3.73;;;2.47;;
15681;SDS011;7941;50.966;6.978;2022-08-05T12:28:55;4.03;;;2.50;;
15681;SDS011;7941;50.966;6.978;2022-08-05T12:31:21;3.70;;;2.53;;
15681;SDS011;7941;50.966;6.978;2022-08-05T12:33:47;4.57;;;2.60;;
15681;SDS011;7941;50.966;6.978;2022-08-05T12:36:14;4.13;;;2.80;;
15681;SDS011;7941;50.966;6.978;2022-08-05T12:38:40;4.27;;;2.70;;
15681;SDS011;7941;50.966;6.978;2022-08-05T12:41:07;3.77;;;2.30;;
15681;SDS011;7941;50.966;6.978;2022-08-05T12:43:34;5.23;;;2.60;;
15681;SDS011;7941;50.966;6.978;2022-08-05T12:46:00;4.23;;;2.80;;
15681;SDS011;7941;50.966;6.978;2022-08-05T12:48:26;4.80;;;2.60;;
15681;SDS011;7941;50.966;6.978;2022-08-05T12:51:11;5.03;;;2.97;;
15681;SDS011;7941;50.966;6.978;2022-08-05T12:53:42;3.53;;;2.90;;
15681;SDS011;7941;50.966;6.978;2022-08-05T12:56:21;5.53;;;3.20;;
15681;SDS011;7941;50.966;6.978;2022-08-05T13:01:32;4.47;;;3.00;;
15681;SDS011;7941;50.966;6.978;2022-08-05T13:04:01;4.47;;;2.97;;
15681;SDS011;7941;50.966;6.978;2022-08-05T13:06:27;6.50;;;3.10;;
15681;SDS011;7941;50.966;6.978;2022-08-05T13:08:53;4.03;;;2.97;;
15681;SDS011;7941;50.966;6.978;2022-08-05T13:11:20;5.00;;;3.30;;
15681;SDS011;7941;50.966;6.978;2022-08-05T13:13:48;5.50;;;3.03;;
15681;SDS011;7941;50.966;6.978;2022-08-05T13:16:15;4.53;;;3.10;;
15681;SDS011;7941;50.966;6.978;2022-08-05T13:18:51;4.63;;;3.30;;
15681;SDS011;7941;50.966;6.978;2022-08-05T13:21:17;6.07;;;3.40;;
15681;SDS011;7941;50.966;6.978;2022-08-05T13:23:43;4.20;;;3.27;;
15681;SDS011;7941;50.966;6.978;2022-08-05T13:26:09;4.97;;;3.40;;
15681;SDS011;7941;50.966;6.978;2022-08-05T13:28:36;6.07;;;3.13;;
15681;SDS011;7941;50.966;6.978;2022-08-05T13:31:02;5.60;;;3.50;;
15681;SDS011;7941;50.966;6.978;2022-08-05T13:33:28;5.40;;;4.00;;
15681;SDS011;7941;50.966;6.978;2022-08-05T13:35:54;5.83;;;3.80;;
15681;SDS011;7941;50.966;6.978;2022-08-05T13:38:20;5.93;;;4.40;;
15681;SDS011;7941;50.966;6.978;2022-08-05T13:40:47;6.50;;;4.20;;
15681;SDS011;7941;50.966;6.978;2022-08-05T13:43:13;5.00;;;4.50;;
15681;SDS011;7941;50.966;6.978;2022-08-05T13:45:40;5.70;;;3.90;;
15681;SDS011;7941;50.966;6.978;2022-08-05T13:48:06;5.33;;;3.30;;
15681;SDS011;7941;50.966;6.978;2022-08-05T13:50:32;4.43;;;3.40;;
15681;SDS011;7941;50.966;6.978;2022-08-05T13:52:59;4.60;;;2.90;;
15681;SDS011;7941;50.966;6.978;2022-08-05T13:55:25;6.33;;;2.97;;
15681;SDS011;7941;50.966;6.978;2022-08-05T13:57:51;3.90;;;2.60;;
15681;SDS011;7941;50.966;6.978;2022-08-05T14:00:18;4.07;;;3.30;;
15681;SDS011;7941;50.966;6.978;2022-08-05T14:02:44;4.17;;;2.73;;
15681;SDS011;7941;50.966;6.978;2022-08-05T14:05:10;3.23;;;2.40;;
15681;SDS011;7941;50.966;6.978;2022-08-05T14:07:38;4.30;;;3.20;;
15681;SDS011;7941;50.966;6.978;2022-08-05T14:10:06;4.37;;;3.20;;
15681;SDS011;7941;50.966;6.978;2022-08-05T14:12:32;4.73;;;3.73;;
15681;SDS011;7941;50.966;6.978;2022-08-05T14:14:58;3.93;;;3.27;;
15681;SDS011;7941;50.966;6.978;2022-08-05T14:17:24;5.27;;;3.60;;
15681;SDS011;7941;50.966;6.978;2022-08-05T14:19:51;4.10;;;3.63;;
15681;SDS011;7941;50.966;6.978;2022-08-05T14:22:18;5.77;;;3.80;;
15681;SDS011;7941;50.966;6.978;2022-08-05T14:24:45;5.10;;;4.20;;
15681;SDS011;7941;50.966;6.978;2022-08-05T14:27:11;7.63;;;4.00;;
15681;SDS011;7941;50.966;6.978;2022-08-05T14:29:37;4.10;;;3.77;;
15681;SDS011;7941;50.966;6.978;2022-08-05T14:32:04;5.37;;;4.10;;
15681;SDS011;7941;50.966;6.978;2022-08-05T14:34:31;4.40;;;3.53;;
15681;SDS011;7941;50.966;6.978;2022-08-05T14:36:57;6.10;;;3.80;;
15681;SDS011;7941;50.966;6.978;2022-08-05T14:39:23;6.43;;;3.33;;
15681;SDS011;7941;50.966;6.978;2022-08-05T14:41:49;3.03;;;2.73;;
15681;SDS011;7941;50.966;6.978;2022-08-05T14:44:15;5.40;;;3.10;;
15681;SDS011;7941;50.966;6.978;2022-08-05T14:46:42;6.03;;;2.50;;
15681;SDS011;7941;50.966;6.978;2022-08-05T14:49:08;4.40;;;2.27;;
15681;SDS011;7941;50.966;6.978;2022-08-05T14:51:35;3.50;;;2.30;;
15681;SDS011;7941;50.966;6.978;2022-08-05T14:54:01;4.20;;;2.03;;
15681;SDS011;7941;50.966;6.978;2022-08-05T14:56:27;4.80;;;2.30;;
15681;SDS011;7941;50.966;6.978;2022-08-05T14:58:53;2.60;;;2.00;;
15681;SDS011;7941;50.966;6.978;2022-08-05T15:01:19;2.17;;;1.77;;
15681;SDS011;7941;50.966;6.978;2022-08-05T15:03:46;3.50;;;1.40;;
15681;SDS011;7941;50.966;6.978;2022-08-05T15:06:12;3.90;;;2.07;;
15681;SDS011;7941;50.966;6.978;2022-08-05T15:08:38;5.17;;;1.90;;
15681;SDS011;7941;50.966;6.978;2022-08-05T15:11:04;3.37;;;1.73;;
15681;SDS011;7941;50.966;6.978;2022-08-05T15:13:31;3.10;;;1.50;;
15681;SDS011;7941;50.966;6.978;2022-08-05T15:15:58;3.90;;;1.90;;
15681;SDS011;7941;50.966;6.978;2022-08-05T15:18:24;4.27;;;1.50;;
15681;SDS011;7941;50.966;6.978;2022-08-05T15:20:50;2.93;;;1.10;;
15681;SDS011;7941;50.966;6.978;2022-08-05T15:23:16;5.13;;;1.70;;
15681;SDS011;7941;50.966;6.978;2022-08-05T15:25:43;3.90;;;1.40;;